createdAt,value
2022-10-04T00:01:46.735Z,12.99
2022-10-04T00:04:47.932Z,12.96
2022-10-04T00:07:17.605Z,12.97
2022-10-04T00:09:47.352Z,12.96
2022-10-04T00:12:40.523Z,12.99
2022-10-04T00:15:28.705Z,12.99
2022-10-04T00:18:17.162Z,12.96
2022-10-04T00:20:55.822Z,12.96
2022-10-04T00:23:25.538Z,12.99
2022-10-04T00:25:56.141Z,13.01
2022-10-04T00:28:25.998Z,13.02
2022-10-04T00:31:14.348Z,13.01
2022-10-04T00:33:56.423Z,13.01
2022-10-04T00:36:29.264Z,13.02
2022-10-04T00:39:07.776Z,13.02
2022-10-04T00:41:48.731Z,13.02
2022-10-04T00:44:47.106Z,13.05
2022-10-04T00:47:26.624Z,13.03
2022-10-04T00:49:58.627Z,13.05
2022-10-04T00:52:35.064Z,13.04
2022-10-04T00:55:08.975Z,13.07
2022-10-04T00:57:45.609Z,13.06
2022-10-04T01:00:15.429Z,13.04
2022-10-04T01:02:43.969Z,13.07
2022-10-04T01:05:16.856Z,13.07
2022-10-04T01:07:51.669Z,13.07
2022-10-04T01:10:50.670Z,13.10
2022-10-04T01:13:30.581Z,13.10
2022-10-04T01:16:04.491Z,13.09
2022-10-04T01:18:33.733Z,13.08
2022-10-04T01:21:28.033Z,13.09
2022-10-04T01:23:57.665Z,13.06
2022-10-04T01:26:30.499Z,13.09
2022-10-04T01:29:00.226Z,13.09
2022-10-04T01:31:32.117Z,13.10
2022-10-04T01:34:00.736Z,13.11
2022-10-04T01:36:28.327Z,13.11
2022-10-04T01:38:56.193Z,13.11
2022-10-04T01:41:41.378Z,13.14
2022-10-04T01:44:13.451Z,13.14
2022-10-04T01:46:41.172Z,13.12
2022-10-04T01:49:12.335Z,13.11
2022-10-04T01:52:19.955Z,13.14
2022-10-04T01:55:22.020Z,13.12
2022-10-04T01:57:52.746Z,13.10
2022-10-04T02:00:22.354Z,13.10
2022-10-04T02:02:55.007Z,13.09
2022-10-04T02:05:33.543Z,13.09
2022-10-04T02:08:13.466Z,13.11
2022-10-04T02:10:43.599Z,13.11
2022-10-04T02:13:20.817Z,13.12
2022-10-04T02:15:49.190Z,13.12
2022-10-04T02:18:20.732Z,13.15
2022-10-04T02:20:49.605Z,13.16
2022-10-04T02:23:19.957Z,13.18
2022-10-04T02:25:47.381Z,13.19
2022-10-04T02:28:16.263Z,13.19
2022-10-04T02:31:07.544Z,13.22
2022-10-04T02:33:42.456Z,13.20
2022-10-04T02:36:10.531Z,13.24
2022-10-04T02:38:42.962Z,13.23
2022-10-04T02:41:36.967Z,13.25
2022-10-04T02:44:16.288Z,13.27
2022-10-04T02:46:52.619Z,13.26
2022-10-04T02:49:42.035Z,13.26
2022-10-04T02:52:16.335Z,13.29
2022-10-04T02:54:52.713Z,13.30
2022-10-04T02:57:22.420Z,13.29
2022-10-04T02:59:50.286Z,13.32
2022-10-04T03:02:29.618Z,13.35
2022-10-04T03:05:05.982Z,13.35
2022-10-04T03:07:35.529Z,13.34
2022-10-04T03:10:06.865Z,13.35
2022-10-04T03:12:34.060Z,13.35
2022-10-04T03:15:00.868Z,13.37
2022-10-04T03:17:28.353Z,13.36
2022-10-04T03:19:55.278Z,13.36
2022-10-04T03:22:23.400Z,13.36
2022-10-04T03:24:54.605Z,13.35
2022-10-04T03:27:29.607Z,13.37
2022-10-04T03:29:59.502Z,13.37
2022-10-04T03:32:30.512Z,13.36
2022-10-04T03:35:00.894Z,13.37
2022-10-04T03:37:30.811Z,13.37
2022-10-04T03:39:58.832Z,13.37
2022-10-04T03:42:31.688Z,13.39
2022-10-04T03:45:11.692Z,13.39
2022-10-04T03:47:42.979Z,13.38
2022-10-04T03:50:21.464Z,13.40
2022-10-04T03:52:55.365Z,13.38
2022-10-04T03:55:26.316Z,13.40
2022-10-04T03:57:53.182Z,13.38
2022-10-04T04:00:20.225Z,13.40
2022-10-04T04:02:58.726Z,13.39
2022-10-04T04:05:54.885Z,13.43
2022-10-04T04:08:27.703Z,13.41
2022-10-04T04:11:00.196Z,13.40
2022-10-04T04:13:31.222Z,13.40
2022-10-04T04:16:01.462Z,13.40
2022-10-04T04:18:33.912Z,13.43
2022-10-04T04:21:03.925Z,13.43
2022-10-04T04:23:42.645Z,13.43
2022-10-04T04:26:43.080Z,13.45
2022-10-04T04:29:23.841Z,13.45
2022-10-04T04:31:59.889Z,13.46
2022-10-04T04:34:33.103Z,13.47
2022-10-04T04:37:01.893Z,13.48
2022-10-04T04:39:39.899Z,13.48
2022-10-04T04:42:29.772Z,13.50
2022-10-04T04:45:00.933Z,13.50
2022-10-04T04:47:47.896Z,13.49
2022-10-04T04:50:29.296Z,13.50
2022-10-04T04:53:17.582Z,13.49
2022-10-04T04:56:05.083Z,13.51
2022-10-04T04:58:36.171Z,13.52
2022-10-04T05:01:08.570Z,13.52
2022-10-04T05:03:35.547Z,13.53
2022-10-04T05:06:04.946Z,13.54
2022-10-04T05:08:37.328Z,13.53
2022-10-04T05:11:08.345Z,13.53
2022-10-04T05:13:52.719Z,13.53
2022-10-04T05:16:28.509Z,13.53
2022-10-04T05:19:02.568Z,13.55
2022-10-04T05:21:34.680Z,13.54
2022-10-04T05:24:34.764Z,13.58
2022-10-04T05:27:09.308Z,13.59
2022-10-04T05:29:41.563Z,13.60
2022-10-04T05:32:11.510Z,13.59
2022-10-04T05:34:40.686Z,13.60
2022-10-04T05:37:27.741Z,13.60
2022-10-04T05:40:03.041Z,13.59
2022-10-04T05:42:47.085Z,13.58
2022-10-04T05:45:17.380Z,13.58
2022-10-04T05:47:47.688Z,13.55
2022-10-04T05:50:43.973Z,13.56
2022-10-04T05:53:23.965Z,13.58
2022-10-04T05:55:56.725Z,13.59
2022-10-04T05:58:39.969Z,13.56
2022-10-04T06:01:44.544Z,13.56
2022-10-04T06:04:17.741Z,13.55
2022-10-04T06:07:07.382Z,13.58
2022-10-04T06:09:37.196Z,13.58
2022-10-04T06:12:31.782Z,13.60
2022-10-04T06:14:58.646Z,13.60
2022-10-04T06:17:34.220Z,13.62
2022-10-04T06:20:25.641Z,13.62
2022-10-04T06:23:00.337Z,13.63
2022-10-04T06:25:54.448Z,13.65
2022-10-04T06:29:01.507Z,13.64
2022-10-04T06:31:48.636Z,13.64
2022-10-04T06:34:26.255Z,13.64
2022-10-04T06:37:18.996Z,13.68
2022-10-04T06:40:20.461Z,13.67
2022-10-04T06:43:08.442Z,13.69
2022-10-04T06:45:35.241Z,13.69
2022-10-04T06:48:23.679Z,13.70
2022-10-04T06:51:16.275Z,13.73
2022-10-04T06:54:04.408Z,13.71
2022-10-04T06:56:31.335Z,13.71
2022-10-04T06:59:36.459Z,13.73
2022-10-04T07:02:14.905Z,13.74
2022-10-04T07:05:08.502Z,13.76
2022-10-04T07:07:38.196Z,13.74
2022-10-04T07:10:32.550Z,13.74
2022-10-04T07:13:08.579Z,13.74
2022-10-04T07:16:00.594Z,13.75
2022-10-04T07:18:56.709Z,13.75
2022-10-04T07:21:28.224Z,13.77
2022-10-04T07:24:03.924Z,13.76
2022-10-04T07:26:36.197Z,13.76
2022-10-04T07:29:22.249Z,13.76
2022-10-04T07:32:05.737Z,13.77
2022-10-04T07:34:47.199Z,13.77
2022-10-04T07:37:15.214Z,13.79
2022-10-04T07:40:04.742Z,13.79
2022-10-04T07:42:38.300Z,13.80
2022-10-04T07:45:30.054Z,13.78
2022-10-04T07:48:26.038Z,13.79
2022-10-04T07:51:19.927Z,13.79
2022-10-04T07:54:01.727Z,13.79
2022-10-04T07:56:39.140Z,13.81
2022-10-04T07:59:28.951Z,13.82
2022-10-04T08:02:07.922Z,13.81
2022-10-04T08:05:01.564Z,13.83
2022-10-04T08:07:34.074Z,13.85
2022-10-04T08:10:29.313Z,13.84
2022-10-04T08:13:28.425Z,13.82
2022-10-04T08:16:03.165Z,13.82
2022-10-04T08:18:58.011Z,13.82
2022-10-04T08:21:37.029Z,13.82
2022-10-04T08:24:25.071Z,13.81
2022-10-04T08:27:21.155Z,13.84
2022-10-04T08:29:53.625Z,13.81
2022-10-04T08:32:35.836Z,13.83
2022-10-04T08:35:16.472Z,13.84
2022-10-04T08:37:46.241Z,13.83
2022-10-04T08:40:39.208Z,13.83
2022-10-04T08:43:31.297Z,13.85
2022-10-04T08:46:33.253Z,13.86
2022-10-04T08:49:21.959Z,13.88
2022-10-04T08:52:25.586Z,13.85
2022-10-04T08:55:20.795Z,13.88
2022-10-04T08:58:15.310Z,13.88
2022-10-04T09:00:55.318Z,13.90
2022-10-04T09:04:02.642Z,13.90
2022-10-04T09:06:38.296Z,13.88
2022-10-04T09:09:35.017Z,13.89
2022-10-04T09:12:13.770Z,13.89
2022-10-04T09:14:51.258Z,13.90
2022-10-04T09:17:51.042Z,13.91
2022-10-04T09:20:42.654Z,13.92
2022-10-04T09:23:16.777Z,13.92
2022-10-04T09:25:56.472Z,13.92
2022-10-04T09:28:45.374Z,13.91
2022-10-04T09:31:29.610Z,13.89
2022-10-04T09:34:44.154Z,13.90
2022-10-04T09:37:32.546Z,13.90
2022-10-04T09:40:06.681Z,13.90
2022-10-04T09:42:49.872Z,13.90
2022-10-04T09:45:28.862Z,13.91
2022-10-04T09:48:25.124Z,13.91
2022-10-04T09:51:08.365Z,13.90
2022-10-04T09:53:45.150Z,13.91
2022-10-04T09:56:33.538Z,13.93
2022-10-04T09:59:12.446Z,13.94
2022-10-04T10:02:07.508Z,13.95
2022-10-04T10:04:40.150Z,13.97
2022-10-04T10:07:38.935Z,13.98
2022-10-04T10:10:44.187Z,13.98
2022-10-04T10:13:45.101Z,14.01
2022-10-04T10:16:41.227Z,14.03
2022-10-04T10:19:26.133Z,14.04
2022-10-04T10:22:13.188Z,14.04
2022-10-04T10:24:46.374Z,14.04
2022-10-04T10:27:52.768Z,14.04
2022-10-04T10:30:22.612Z,14.05
2022-10-04T10:33:24.523Z,14.05
2022-10-04T10:36:10.253Z,14.04
2022-10-04T10:39:17.093Z,14.04
2022-10-04T10:42:14.965Z,14.06
2022-10-04T10:45:21.271Z,14.07
2022-10-04T10:47:56.222Z,14.08
2022-10-04T10:51:00.584Z,14.11
2022-10-04T10:54:01.039Z,14.08
2022-10-04T10:56:49.159Z,14.10
2022-10-04T10:59:50.488Z,14.09
2022-10-04T11:02:50.565Z,14.11
2022-10-04T11:05:29.615Z,14.10
2022-10-04T11:08:33.728Z,14.10
2022-10-04T11:11:14.820Z,14.12
2022-10-04T11:14:28.511Z,14.12
2022-10-04T11:16:56.853Z,14.12
2022-10-04T11:20:05.744Z,14.12
2022-10-04T11:22:38.345Z,14.10
2022-10-04T11:25:35.071Z,14.11
2022-10-04T11:28:18.430Z,14.14
2022-10-04T11:31:15.664Z,14.14
2022-10-04T11:33:57.472Z,14.17
2022-10-04T11:36:26.961Z,14.13
2022-10-04T11:38:53.865Z,14.14
2022-10-04T11:41:33.698Z,14.15
2022-10-04T11:44:26.195Z,14.18
2022-10-04T11:47:01.034Z,14.17
2022-10-04T11:49:54.092Z,14.17
2022-10-04T11:52:20.974Z,14.19
2022-10-04T11:55:06.669Z,14.20
2022-10-04T11:58:19.977Z,14.18
2022-10-04T12:01:14.227Z,14.20
2022-10-04T12:04:10.411Z,14.22
2022-10-04T12:06:43.196Z,14.21
2022-10-04T12:09:39.536Z,14.23
2022-10-04T12:12:40.529Z,14.25
2022-10-04T12:15:20.353Z,14.25
2022-10-04T12:17:52.712Z,14.26
2022-10-04T12:20:40.832Z,14.26
2022-10-04T12:23:38.197Z,14.26
2022-10-04T12:26:32.143Z,14.26
2022-10-04T12:29:15.310Z,14.27
2022-10-04T12:32:06.271Z,14.30
2022-10-04T12:34:39.229Z,14.30
2022-10-04T12:37:19.083Z,14.32
2022-10-04T12:40:10.684Z,14.33
2022-10-04T12:43:06.166Z,14.33
2022-10-04T12:46:09.998Z,14.37
2022-10-04T12:49:04.126Z,14.36
2022-10-04T12:51:43.658Z,14.35
2022-10-04T12:54:22.474Z,14.36
2022-10-04T12:57:17.677Z,14.37
2022-10-04T13:00:05.770Z,14.37
2022-10-04T13:02:55.688Z,14.36
2022-10-04T13:05:55.189Z,14.37
2022-10-04T13:08:24.832Z,14.36
2022-10-04T13:11:42.682Z,14.37
2022-10-04T13:14:28.258Z,14.36
2022-10-04T13:20:37.627Z,14.34
2022-10-04T13:23:11.829Z,14.33
2022-10-04T13:25:45.806Z,14.35
2022-10-04T13:28:38.793Z,14.35
2022-10-04T13:31:10.265Z,14.35
2022-10-04T13:34:00.500Z,14.34
2022-10-04T13:37:02.594Z,14.35
2022-10-04T13:39:51.129Z,14.35
2022-10-04T13:42:21.048Z,14.35
2022-10-04T13:44:56.833Z,14.34
2022-10-04T13:47:23.962Z,14.35
2022-10-04T13:49:59.488Z,14.36
2022-10-04T13:53:23.400Z,14.36
2022-10-04T13:56:18.055Z,14.37
2022-10-04T13:58:56.713Z,14.37
2022-10-04T14:01:35.845Z,14.39
2022-10-04T14:04:35.826Z,14.40
2022-10-04T14:07:19.259Z,14.40
2022-10-04T14:10:14.709Z,14.40
2022-10-04T14:13:18.855Z,14.37
2022-10-04T14:15:54.873Z,14.37
2022-10-04T14:18:36.893Z,14.38
2022-10-04T14:21:21.665Z,14.35
2022-10-04T14:24:06.577Z,14.33
2022-10-04T14:26:42.905Z,14.34
2022-10-04T14:29:36.809Z,14.33
2022-10-04T14:32:25.819Z,14.32
2022-10-04T14:35:02.984Z,14.30
2022-10-04T14:37:57.476Z,14.28
2022-10-04T14:40:45.949Z,14.30
2022-10-04T14:43:45.351Z,14.27
2022-10-04T14:46:47.781Z,14.25
2022-10-04T14:49:14.722Z,14.30
2022-10-04T14:51:44.732Z,14.25
2022-10-04T14:54:18.913Z,14.22
2022-10-04T14:56:52.325Z,14.23
2022-10-04T14:59:31.653Z,14.23
2022-10-04T15:02:07.584Z,14.23
2022-10-04T15:05:17.730Z,14.26
2022-10-04T15:07:49.969Z,14.24
2022-10-04T15:10:35.758Z,14.22
2022-10-04T15:13:16.243Z,14.22
2022-10-04T15:16:13.663Z,14.21
2022-10-04T15:19:23.368Z,14.22
2022-10-04T15:21:50.105Z,14.22
2022-10-04T15:24:16.869Z,14.22
2022-10-04T15:26:55.945Z,14.22
2022-10-04T15:29:46.642Z,14.21
2022-10-04T15:32:19.599Z,14.23
2022-10-04T15:35:21.198Z,14.22
2022-10-04T15:38:14.969Z,14.22
2022-10-04T15:40:41.820Z,14.18
2022-10-04T15:43:31.663Z,14.18
2022-10-04T15:46:34.109Z,14.15
2022-10-04T15:49:15.897Z,14.12
2022-10-04T15:52:11.695Z,14.12
2022-10-04T15:55:25.832Z,14.11
2022-10-04T15:58:21.438Z,14.10
2022-10-04T16:01:00.170Z,14.09
2022-10-04T16:04:00.396Z,14.10
2022-10-04T16:06:56.605Z,14.09
2022-10-04T16:09:33.625Z,14.08
2022-10-04T16:12:33.064Z,14.09
2022-10-04T16:15:19.809Z,14.08
2022-10-04T16:17:59.782Z,14.07
2022-10-04T16:20:49.320Z,14.05
2022-10-04T16:23:37.222Z,14.05
2022-10-04T16:26:12.329Z,14.04
2022-10-04T16:28:42.252Z,14.05
2022-10-04T16:31:27.197Z,14.03
2022-10-04T16:33:57.229Z,14.03
2022-10-04T16:36:31.987Z,14.01
2022-10-04T16:39:19.580Z,14.00
2022-10-04T16:41:57.821Z,13.98
2022-10-04T16:44:52.173Z,13.99
2022-10-04T16:47:22.540Z,13.99
2022-10-04T16:49:57.181Z,14.00
2022-10-04T16:52:48.449Z,13.97
2022-10-04T16:55:42.397Z,13.97
2022-10-04T16:58:27.678Z,13.97
2022-10-04T17:01:22.621Z,13.96
2022-10-04T17:04:27.223Z,13.96
2022-10-04T17:06:59.913Z,13.95
2022-10-04T17:09:52.997Z,13.94
2022-10-04T17:12:51.210Z,13.93
2022-10-04T17:15:38.070Z,13.92
2022-10-04T17:18:27.032Z,13.90
2022-10-04T17:21:06.042Z,13.88
2022-10-04T17:23:57.063Z,13.88
2022-10-04T17:27:05.746Z,13.85
2022-10-04T17:29:57.681Z,13.85
2022-10-04T17:32:48.625Z,13.89
2022-10-04T17:35:52.989Z,13.85
2022-10-04T17:38:50.848Z,13.85
2022-10-04T17:41:36.087Z,13.85
2022-10-04T17:44:26.935Z,13.83
2022-10-04T17:47:51.185Z,13.80
2022-10-04T17:50:54.752Z,13.79
2022-10-04T17:53:46.169Z,13.76
2022-10-04T17:56:22.885Z,13.71
2022-10-04T17:58:56.463Z,13.69
2022-10-04T18:01:36.301Z,13.67
2022-10-04T18:04:17.156Z,13.65
2022-10-04T18:06:56.196Z,13.64
2022-10-04T18:09:41.844Z,13.63
2022-10-04T18:12:24.715Z,13.63
2022-10-04T18:15:30.828Z,13.63
2022-10-04T18:18:18.898Z,13.61
2022-10-04T18:21:05.218Z,13.61
2022-10-04T18:24:14.213Z,13.55
2022-10-04T18:26:58.013Z,13.55
2022-10-04T18:29:43.261Z,13.53
2022-10-04T18:32:18.474Z,13.53
2022-10-04T18:34:54.365Z,13.51
2022-10-04T18:37:33.601Z,13.52
2022-10-04T18:40:15.003Z,13.52
2022-10-04T18:42:47.629Z,13.53
2022-10-04T18:45:23.818Z,13.52
2022-10-04T18:47:52.198Z,13.52
2022-10-04T18:50:25.174Z,13.52
2022-10-04T18:53:21.257Z,13.54
2022-10-04T18:55:51.179Z,13.53
2022-10-04T18:59:27.297Z,13.53
2022-10-04T19:02:00.000Z,13.53
2022-10-04T19:05:14.570Z,13.52
2022-10-04T19:08:02.443Z,13.53
2022-10-04T19:10:38.241Z,13.53
2022-10-04T19:13:07.865Z,13.54
2022-10-04T19:15:56.214Z,13.53
2022-10-04T19:18:52.293Z,13.51
2022-10-04T19:21:37.376Z,13.50
2022-10-04T19:24:19.161Z,13.50
2022-10-04T19:26:57.577Z,13.50
2022-10-04T19:30:02.701Z,13.49
2022-10-04T19:32:36.577Z,13.49
2022-10-04T19:35:27.348Z,13.51
2022-10-04T19:38:29.510Z,13.50
2022-10-04T19:41:07.267Z,13.48
2022-10-04T19:43:48.962Z,13.48
2022-10-04T19:46:35.122Z,13.47
2022-10-04T19:49:03.147Z,13.48
2022-10-04T19:51:34.544Z,13.47
2022-10-04T19:54:13.370Z,13.47
2022-10-04T19:56:48.692Z,13.47
2022-10-04T19:59:31.207Z,13.45
2022-10-04T20:01:58.167Z,13.45
2022-10-04T20:04:35.515Z,13.44
2022-10-04T20:07:24.091Z,13.41
2022-10-04T20:10:23.045Z,13.41
2022-10-04T20:13:13.484Z,13.39
2022-10-04T20:15:40.310Z,13.40
2022-10-04T20:18:33.061Z,13.39
2022-10-04T20:21:03.447Z,13.37
2022-10-04T20:23:39.279Z,13.35
2022-10-04T20:26:10.546Z,13.36
2022-10-04T20:28:41.651Z,13.35
2022-10-04T20:31:33.007Z,13.36
2022-10-04T20:34:35.654Z,13.36
2022-10-04T20:37:04.073Z,13.35
2022-10-04T20:39:50.418Z,13.36
2022-10-04T20:42:35.857Z,13.34
2022-10-04T20:45:11.980Z,13.33
2022-10-04T20:47:46.730Z,13.31
2022-10-04T20:50:35.957Z,13.32
2022-10-04T20:53:06.867Z,13.31
2022-10-04T20:55:39.059Z,13.30
2022-10-04T20:58:25.644Z,13.30
2022-10-04T21:00:57.220Z,13.30
2022-10-04T21:03:24.507Z,13.27
2022-10-04T21:06:12.728Z,13.29
2022-10-04T21:08:41.113Z,13.27
2022-10-04T21:11:19.130Z,13.27
2022-10-04T21:13:57.853Z,13.27
2022-10-04T21:16:38.290Z,13.26
2022-10-04T21:19:33.481Z,13.26
2022-10-04T21:22:02.407Z,13.26
2022-10-04T21:24:36.453Z,13.25
2022-10-04T21:27:05.087Z,13.24
2022-10-04T21:29:32.346Z,13.24
2022-10-04T21:31:59.853Z,13.24
2022-10-04T21:34:48.596Z,13.23
2022-10-04T21:37:15.949Z,13.22
2022-10-04T21:39:43.159Z,13.24
2022-10-04T21:42:10.701Z,13.24
2022-10-04T21:44:37.920Z,13.22
2022-10-04T21:47:04.827Z,13.20
2022-10-04T21:49:31.685Z,13.22
2022-10-04T21:51:58.529Z,13.23
2022-10-04T21:54:25.453Z,13.21
2022-10-04T21:56:53.968Z,13.21
2022-10-04T21:59:21.227Z,13.21
2022-10-04T22:01:48.084Z,13.21
2022-10-04T22:04:14.887Z,13.21
2022-10-04T22:06:41.929Z,13.20
2022-10-04T22:09:09.654Z,13.21
2022-10-04T22:11:36.792Z,13.21
2022-10-04T22:14:04.022Z,13.22
2022-10-04T22:16:30.982Z,13.23
2022-10-04T22:18:57.829Z,13.21
2022-10-04T22:21:24.655Z,13.20
2022-10-04T22:23:51.427Z,13.19
2022-10-04T22:26:21.469Z,13.18
2022-10-04T22:28:54.172Z,13.18
2022-10-04T22:31:26.209Z,13.16
2022-10-04T22:33:53.670Z,13.15
2022-10-04T22:36:40.050Z,13.16
2022-10-04T22:39:09.597Z,13.12
2022-10-04T22:41:38.993Z,13.12
2022-10-04T22:44:17.839Z,13.14
2022-10-04T22:46:48.155Z,13.16
2022-10-04T22:49:21.601Z,13.15
2022-10-04T22:51:50.445Z,13.15
2022-10-04T22:54:20.236Z,13.12
2022-10-04T22:56:47.949Z,13.12
2022-10-04T22:59:17.343Z,13.14
2022-10-04T23:01:44.264Z,13.12
2022-10-04T23:04:21.478Z,13.11
2022-10-04T23:06:49.253Z,13.12
2022-10-04T23:09:16.546Z,13.11
2022-10-04T23:11:43.873Z,13.11
2022-10-04T23:14:11.421Z,13.11
2022-10-04T23:16:38.887Z,13.10
2022-10-04T23:19:20.179Z,13.10
2022-10-04T23:21:49.420Z,13.10
2022-10-04T23:24:18.911Z,13.10
2022-10-04T23:26:49.135Z,13.10
2022-10-04T23:29:24.232Z,13.10
2022-10-04T23:31:52.568Z,13.11
2022-10-04T23:34:22.999Z,13.10
2022-10-04T23:36:51.616Z,13.09
2022-10-04T23:39:25.046Z,13.09
2022-10-04T23:41:54.771Z,13.10
2022-10-04T23:44:37.162Z,13.09
2022-10-04T23:47:14.620Z,13.10
2022-10-04T23:49:42.752Z,13.07
2022-10-04T23:52:19.064Z,13.10
2022-10-04T23:54:47.143Z,13.08
2022-10-04T23:57:21.375Z,13.11
2022-10-04T23:59:49.277Z,13.07
